createdAt,value
2023-04-02T00:00:10.820Z,100.00
2023-04-02T00:03:09.712Z,100.00
2023-04-02T00:05:39.660Z,100.00
2023-04-02T00:08:44.468Z,100.00
2023-04-02T00:11:29.993Z,100.00
2023-04-02T00:14:01.388Z,100.00
2023-04-02T00:16:29.068Z,100.00
2023-04-02T00:19:01.279Z,100.00
2023-04-02T00:21:30.852Z,100.00
2023-04-02T00:24:00.636Z,100.00
2023-04-02T00:26:43.352Z,100.00
2023-04-02T00:29:12.369Z,100.00
2023-04-02T00:31:42.150Z,100.00
2023-04-02T00:34:20.196Z,100.00
2023-04-02T00:36:47.786Z,100.00
2023-04-02T00:39:20.312Z,100.00
2023-04-02T00:41:47.194Z,100.00
2023-04-02T00:44:17.361Z,100.00
2023-04-02T00:46:44.859Z,100.00
2023-04-02T00:49:19.673Z,100.00
2023-04-02T00:51:51.313Z,100.00
2023-04-02T00:54:21.567Z,100.00
2023-04-02T00:56:52.004Z,100.00
2023-04-02T00:59:30.536Z,100.00
2023-04-02T01:02:21.072Z,100.00
2023-04-02T01:05:03.321Z,100.00
2023-04-02T01:07:38.259Z,100.00
2023-04-02T01:10:19.528Z,100.00
2023-04-02T01:13:13.522Z,100.00
2023-04-02T01:15:48.766Z,100.00
2023-04-02T01:18:41.262Z,100.00
2023-04-02T01:21:24.525Z,100.00
2023-04-02T01:24:05.301Z,100.00
2023-04-02T01:26:43.605Z,100.00
2023-04-02T01:29:11.979Z,100.00
2023-04-02T01:31:39.496Z,100.00
2023-04-02T01:34:08.731Z,100.00
2023-04-02T01:36:53.645Z,100.00
2023-04-02T01:39:50.693Z,100.00
2023-04-02T01:42:32.158Z,100.00
2023-04-02T01:45:15.808Z,100.00
2023-04-02T01:47:43.742Z,100.00
2023-04-02T01:50:19.118Z,100.00
2023-04-02T01:52:49.308Z,100.00
2023-04-02T01:55:20.694Z,100.00
2023-04-02T01:57:52.502Z,100.00
2023-04-02T02:00:20.145Z,100.00
2023-04-02T02:02:49.859Z,100.00
2023-04-02T02:05:20.484Z,100.00
2023-04-02T02:07:47.180Z,100.00
2023-04-02T02:10:43.055Z,100.00
2023-04-02T02:13:14.931Z,100.00
2023-04-02T02:15:41.294Z,100.00
2023-04-02T02:18:10.603Z,100.00
2023-04-02T02:20:37.275Z,100.00
2023-04-02T02:23:04.623Z,100.00
2023-04-02T02:25:34.219Z,100.00
2023-04-02T02:28:23.548Z,100.00
2023-04-02T02:31:01.546Z,100.00
2023-04-02T02:33:43.009Z,100.00
2023-04-02T02:36:33.145Z,100.00
2023-04-02T02:39:22.367Z,100.00
2023-04-02T02:41:54.692Z,100.00
2023-04-02T02:44:23.983Z,100.00
2023-04-02T02:46:56.468Z,100.00
2023-04-02T02:49:30.235Z,100.00
2023-04-02T02:52:05.657Z,100.00
2023-04-02T02:54:34.934Z,100.00
2023-04-02T02:57:06.924Z,100.00
2023-04-02T02:59:34.073Z,100.00
2023-04-02T03:02:02.461Z,100.00
2023-04-02T03:04:29.616Z,100.00
2023-04-02T03:06:58.247Z,100.00
2023-04-02T03:09:52.358Z,100.00
2023-04-02T03:12:42.877Z,100.00
2023-04-02T03:15:21.985Z,100.00
2023-04-02T03:18:11.794Z,100.00
2023-04-02T03:20:48.328Z,99.38
2023-04-02T03:23:25.440Z,100.00
2023-04-02T03:26:14.461Z,100.00
2023-04-02T03:28:46.559Z,99.38
2023-04-02T03:31:19.526Z,100.00
2023-04-02T03:33:58.850Z,100.00
2023-04-02T03:36:28.674Z,99.79
2023-04-02T03:39:05.924Z,100.00
2023-04-02T03:41:44.764Z,100.00
2023-04-02T03:44:23.929Z,98.99
2023-04-02T03:47:12.950Z,98.78
2023-04-02T03:50:00.927Z,98.81
2023-04-02T03:52:29.122Z,98.69
2023-04-02T03:54:57.794Z,99.32
2023-04-02T03:57:24.153Z,98.04
2023-04-02T03:59:58.056Z,97.55
2023-04-02T04:02:42.948Z,97.10
2023-04-02T04:05:22.965Z,98.66
2023-04-02T04:07:53.271Z,98.31
2023-04-02T04:10:25.337Z,98.37
2023-04-02T04:12:55.916Z,97.83
2023-04-02T04:15:37.731Z,99.58
2023-04-02T04:18:22.766Z,99.90
2023-04-02T04:20:57.240Z,100.00
2023-04-02T04:23:30.267Z,100.00
2023-04-02T04:25:59.347Z,98.04
2023-04-02T04:28:35.957Z,98.49
2023-04-02T04:31:14.848Z,98.47
2023-04-02T04:33:45.331Z,98.08
2023-04-02T04:36:25.688Z,98.52
2023-04-02T04:38:52.410Z,98.54
2023-04-02T04:41:24.399Z,99.16
2023-04-02T04:44:03.693Z,100.00
2023-04-02T04:46:45.217Z,98.57
2023-04-02T04:49:18.360Z,98.23
2023-04-02T04:52:06.361Z,100.00
2023-04-02T04:54:38.171Z,100.00
2023-04-02T04:57:16.519Z,100.00
2023-04-02T04:59:45.723Z,100.00
2023-04-02T05:02:20.005Z,99.23
2023-04-02T05:04:51.478Z,98.32
2023-04-02T05:07:36.089Z,98.72
2023-04-02T05:10:21.708Z,99.15
2023-04-02T05:13:36.416Z,98.46
2023-04-02T05:16:26.117Z,98.83
2023-04-02T05:18:59.876Z,99.44
2023-04-02T05:21:44.901Z,100.00
2023-04-02T05:24:46.999Z,98.21
2023-04-02T05:27:37.782Z,97.77
2023-04-02T05:30:24.361Z,98.86
2023-04-02T05:32:54.527Z,98.15
2023-04-02T05:35:26.730Z,99.02
2023-04-02T05:37:53.362Z,97.11
2023-04-02T05:40:38.813Z,96.93
2023-04-02T05:43:09.464Z,97.16
2023-04-02T05:45:38.189Z,96.68
2023-04-02T05:48:17.317Z,96.44
2023-04-02T05:50:48.974Z,95.43
2023-04-02T05:53:28.522Z,95.93
2023-04-02T05:55:57.967Z,97.35
2023-04-02T05:58:36.075Z,97.05
2023-04-02T06:01:32.591Z,97.69
2023-04-02T06:04:17.447Z,98.62
2023-04-02T06:06:50.445Z,99.07
2023-04-02T06:09:30.293Z,100.00
2023-04-02T06:12:27.397Z,100.00
2023-04-02T06:14:53.961Z,100.00
2023-04-02T06:17:21.906Z,100.00
2023-04-02T06:19:49.144Z,100.00
2023-04-02T06:22:32.352Z,100.00
2023-04-02T06:25:05.845Z,100.00
2023-04-02T06:27:33.713Z,99.33
2023-04-02T06:30:05.302Z,100.00
2023-04-02T06:32:31.944Z,99.45
2023-04-02T06:34:58.639Z,100.00
2023-04-02T06:37:34.645Z,100.00
2023-04-02T06:40:03.742Z,99.37
2023-04-02T06:42:40.166Z,100.00
2023-04-02T06:45:16.082Z,99.61
2023-04-02T06:47:46.037Z,99.52
2023-04-02T06:50:35.616Z,99.07
2023-04-02T06:53:05.831Z,98.59
2023-04-02T06:55:44.823Z,100.00
2023-04-02T06:58:11.198Z,99.64
2023-04-02T07:00:44.174Z,97.53
2023-04-02T07:03:25.438Z,97.81
2023-04-02T07:05:52.021Z,98.53
2023-04-02T07:08:18.707Z,98.40
2023-04-02T07:10:45.289Z,97.75
2023-04-02T07:13:20.505Z,97.90
2023-04-02T07:15:51.933Z,97.49
2023-04-02T07:18:30.405Z,96.90
2023-04-02T07:20:57.232Z,96.13
2023-04-02T07:23:24.158Z,97.30
2023-04-02T07:25:52.786Z,94.78
2023-04-02T07:28:21.367Z,94.10
2023-04-02T07:30:48.916Z,96.05
2023-04-02T07:33:17.219Z,94.94
2023-04-02T07:35:44.098Z,97.44
2023-04-02T07:38:10.805Z,93.75
2023-04-02T07:40:37.413Z,95.07
2023-04-02T07:43:05.041Z,94.67
2023-04-02T07:45:31.759Z,95.04
2023-04-02T07:50:30.049Z,93.68
2023-04-02T07:52:56.464Z,93.87
2023-04-02T07:55:22.808Z,93.77
2023-04-02T07:57:53.497Z,92.01
2023-04-02T08:00:20.276Z,93.57
2023-04-02T08:02:47.175Z,93.46
2023-04-02T08:05:13.636Z,92.10
2023-04-02T08:07:40.518Z,92.30
2023-04-02T08:10:09.043Z,93.17
2023-04-02T08:12:35.685Z,91.13
2023-04-02T08:15:03.638Z,91.42
2023-04-02T08:17:29.990Z,90.24
2023-04-02T08:19:56.353Z,91.01
2023-04-02T08:22:22.693Z,89.51
2023-04-02T08:24:48.926Z,87.93
2023-04-02T08:27:15.253Z,89.51
2023-04-02T08:29:41.541Z,88.33
2023-04-02T08:32:11.995Z,90.52
2023-04-02T08:34:38.380Z,88.29
2023-04-02T08:37:04.730Z,89.90
2023-04-02T08:39:31.040Z,86.91
2023-04-02T08:42:06.423Z,86.25
2023-04-02T08:45:05.799Z,86.89
2023-04-02T08:47:39.976Z,87.01
2023-04-02T08:50:18.550Z,88.28
2023-04-02T08:52:44.977Z,84.75
2023-04-02T08:55:20.236Z,84.95
2023-04-02T08:58:04.487Z,84.86
2023-04-02T09:00:39.019Z,79.18
2023-04-02T09:03:14.973Z,73.10
2023-04-02T09:05:44.098Z,74.22
2023-04-02T09:08:20.478Z,74.47
2023-04-02T09:10:57.277Z,73.73
2023-04-02T09:13:27.331Z,73.53
2023-04-02T09:16:03.755Z,72.25
2023-04-02T09:18:32.456Z,73.19
2023-04-02T09:21:00.268Z,74.14
2023-04-02T09:23:27.296Z,72.72
2023-04-02T09:26:03.484Z,69.43
2023-04-02T09:28:31.235Z,68.54
2023-04-02T09:31:06.704Z,67.56
2023-04-02T09:33:50.927Z,63.58
2023-04-02T09:36:34.906Z,63.41
2023-04-02T09:39:25.727Z,65.19
2023-04-02T09:42:02.765Z,64.14
2023-04-02T09:44:32.630Z,60.73
2023-04-02T09:47:04.950Z,65.59
2023-04-02T09:49:37.024Z,68.61
2023-04-02T09:52:19.665Z,68.18
2023-04-02T09:54:47.634Z,71.21
2023-04-02T09:57:19.845Z,71.63
2023-04-02T09:59:46.218Z,73.75
2023-04-02T10:02:39.339Z,73.42
2023-04-02T10:05:18.874Z,74.75
2023-04-02T10:07:54.617Z,73.13
2023-04-02T10:10:31.254Z,73.06
2023-04-02T10:13:40.946Z,72.74
2023-04-02T10:16:16.180Z,72.48
2023-04-02T10:18:53.711Z,70.75
2023-04-02T10:21:26.301Z,71.67
2023-04-02T10:23:54.090Z,68.81
2023-04-02T10:26:47.186Z,67.05
2023-04-02T10:29:31.791Z,66.47
2023-04-02T10:32:10.541Z,66.22
2023-04-02T10:34:49.105Z,65.67
2023-04-02T10:37:18.536Z,68.92
2023-04-02T10:39:50.252Z,67.65
2023-04-02T10:42:50.040Z,65.04
2023-04-02T10:45:33.146Z,67.12
2023-04-02T10:48:28.867Z,66.23
2023-04-02T10:51:07.318Z,65.63
2023-04-02T10:54:01.458Z,67.18
2023-04-02T10:56:35.297Z,66.76
2023-04-02T10:59:24.500Z,71.38
2023-04-02T11:01:53.186Z,70.35
2023-04-02T11:04:25.011Z,69.44
2023-04-02T11:07:13.704Z,69.00
2023-04-02T11:09:45.313Z,68.69
2023-04-02T11:12:23.392Z,68.62
2023-04-02T11:14:50.884Z,67.58
2023-04-02T11:17:18.464Z,64.65
2023-04-02T11:19:44.783Z,65.41
2023-04-02T11:22:18.539Z,67.71
2023-04-02T11:24:53.054Z,69.27
2023-04-02T11:27:33.668Z,66.29
2023-04-02T11:30:26.159Z,63.45
2023-04-02T11:32:52.971Z,64.07
2023-04-02T11:35:30.154Z,62.44
2023-04-02T11:37:59.060Z,61.82
2023-04-02T11:40:43.517Z,62.72
2023-04-02T11:43:31.764Z,60.75
2023-04-02T11:46:05.428Z,62.04
2023-04-02T11:48:33.644Z,63.88
2023-04-02T11:51:00.282Z,61.64
2023-04-02T11:53:34.732Z,61.60
2023-04-02T11:56:26.871Z,62.84
2023-04-02T11:59:09.085Z,62.59
2023-04-02T12:01:57.961Z,61.53
2023-04-02T12:05:02.233Z,59.23
2023-04-02T12:07:31.586Z,60.24
2023-04-02T12:10:00.774Z,60.25
2023-04-02T12:12:32.945Z,60.46
2023-04-02T12:15:00.143Z,59.56
2023-04-02T12:17:32.684Z,61.71
2023-04-02T12:20:23.611Z,62.07
2023-04-02T12:22:53.451Z,60.65
2023-04-02T12:25:52.779Z,62.71
2023-04-02T12:28:19.153Z,58.68
2023-04-02T12:30:47.477Z,60.96
2023-04-02T12:33:35.749Z,61.43
2023-04-02T12:36:04.389Z,63.82
2023-04-02T12:38:34.729Z,61.25
2023-04-02T12:41:03.913Z,63.42
2023-04-02T12:43:35.867Z,61.43
2023-04-02T12:46:05.414Z,58.40
2023-04-02T12:48:33.309Z,59.67
2023-04-02T12:51:00.674Z,60.65
2023-04-02T12:53:35.913Z,61.05
2023-04-02T12:56:03.733Z,61.21
2023-04-02T12:58:40.739Z,60.74
2023-04-02T13:01:20.045Z,58.49
2023-04-02T13:04:03.776Z,64.17
2023-04-02T13:06:30.436Z,59.86
2023-04-02T13:08:57.254Z,61.20
2023-04-02T13:11:37.595Z,61.17
2023-04-02T13:14:06.296Z,60.95
2023-04-02T13:16:37.760Z,62.42
2023-04-02T13:19:17.384Z,59.40
2023-04-02T13:21:44.682Z,61.34
2023-04-02T13:24:44.353Z,59.43
2023-04-02T13:27:11.099Z,54.24
2023-04-02T13:29:37.465Z,55.00
2023-04-02T13:32:06.976Z,55.29
2023-04-02T13:34:33.506Z,56.42
2023-04-02T13:37:00.165Z,58.78
2023-04-02T13:39:26.619Z,57.57
2023-04-02T13:41:57.502Z,58.23
2023-04-02T13:44:27.097Z,59.83
2023-04-02T13:46:54.891Z,58.50
2023-04-02T13:49:22.981Z,59.77
2023-04-02T13:51:52.268Z,55.86
2023-04-02T13:54:49.265Z,57.95
2023-04-02T13:57:15.808Z,57.33
2023-04-02T13:59:42.319Z,61.74
2023-04-02T14:02:13.052Z,59.45
2023-04-02T14:04:44.643Z,59.20
2023-04-02T14:08:07.493Z,56.01
2023-04-02T14:11:02.826Z,55.27
2023-04-02T14:13:50.261Z,57.82
2023-04-02T14:16:41.935Z,56.39
2023-04-02T14:19:39.779Z,53.40
2023-04-02T14:22:45.728Z,55.84
2023-04-02T14:25:30.545Z,55.32
2023-04-02T14:28:30.797Z,56.56
2023-04-02T14:31:21.237Z,58.71
2023-04-02T14:33:57.242Z,59.84
2023-04-02T14:36:29.210Z,57.52
2023-04-02T14:38:59.697Z,55.59
2023-04-02T14:41:58.004Z,59.87
2023-04-02T14:44:28.619Z,56.26
2023-04-02T14:47:08.480Z,58.27
2023-04-02T14:49:42.834Z,55.51
2023-04-02T14:52:15.792Z,58.28
2023-04-02T14:55:00.109Z,57.06
2023-04-02T14:57:32.783Z,54.03
2023-04-02T15:00:08.342Z,56.19
2023-04-02T15:03:02.611Z,57.72
2023-04-02T15:05:55.767Z,57.93
2023-04-02T15:08:29.288Z,60.78
2023-04-02T15:11:08.597Z,63.08
2023-04-02T15:13:42.922Z,58.95
2023-04-02T15:16:20.827Z,60.46
2023-04-02T15:18:51.923Z,62.49
2023-04-02T15:21:21.326Z,61.61
2023-04-02T15:24:02.620Z,60.87
2023-04-02T15:26:58.733Z,62.01
2023-04-02T15:29:56.251Z,62.16
2023-04-02T15:32:34.821Z,62.04
2023-04-02T15:35:16.284Z,62.74
2023-04-02T15:37:50.357Z,62.04
2023-04-02T15:40:43.205Z,60.99
2023-04-02T15:43:20.583Z,60.84
2023-04-02T15:46:12.773Z,60.55
2023-04-02T15:48:56.337Z,63.11
2023-04-02T15:51:36.703Z,62.95
2023-04-02T15:54:19.626Z,62.88
2023-04-02T15:57:08.868Z,62.42
2023-04-02T15:59:57.152Z,66.67
2023-04-02T16:03:16.430Z,63.28
2023-04-02T16:06:06.552Z,64.36
2023-04-02T16:08:44.366Z,60.41
2023-04-02T16:11:13.204Z,60.68
2023-04-02T16:13:41.907Z,62.55
2023-04-02T16:16:17.281Z,62.97
2023-04-02T16:19:17.624Z,60.98
2023-04-02T16:22:09.918Z,62.04
2023-04-02T16:24:36.258Z,62.56
2023-04-02T16:27:20.137Z,61.53
2023-04-02T16:30:05.879Z,62.21
2023-04-02T16:32:58.404Z,62.08
2023-04-02T16:35:42.300Z,62.93
2023-04-02T16:38:12.293Z,62.86
2023-04-02T16:41:07.538Z,62.80
2023-04-02T16:43:43.991Z,60.97
2023-04-02T16:46:20.355Z,61.01
2023-04-02T16:49:13.108Z,61.63
2023-04-02T16:51:47.361Z,64.17
2023-04-02T16:54:27.706Z,65.32
2023-04-02T16:57:24.010Z,67.48
2023-04-02T17:00:15.293Z,68.98
2023-04-02T17:02:54.040Z,69.20
2023-04-02T17:05:31.882Z,68.54
2023-04-02T17:08:11.094Z,67.79
2023-04-02T17:11:01.738Z,64.49
2023-04-02T17:13:39.502Z,65.68
2023-04-02T17:16:28.279Z,65.82
2023-04-02T17:18:56.300Z,63.73
2023-04-02T17:21:28.432Z,64.85
2023-04-02T17:24:05.413Z,65.57
2023-04-02T17:26:36.635Z,65.63
2023-04-02T17:29:08.298Z,65.74
2023-04-02T17:31:35.330Z,66.83
2023-04-02T17:34:13.878Z,68.63
2023-04-02T17:36:58.487Z,70.66
2023-04-02T17:39:37.850Z,71.75
2023-04-02T17:42:18.251Z,72.60
2023-04-02T17:45:06.478Z,71.29
2023-04-02T17:48:33.333Z,71.85
2023-04-02T17:51:05.433Z,72.99
2023-04-02T17:53:34.396Z,72.66
2023-04-02T17:56:19.555Z,72.42
2023-04-02T17:59:14.833Z,72.62
2023-04-02T18:01:57.631Z,74.00
2023-04-02T18:04:51.952Z,75.14
2023-04-02T18:07:48.828Z,75.90
2023-04-02T18:10:22.188Z,76.61
2023-04-02T18:13:17.861Z,77.82
2023-04-02T18:16:21.259Z,78.03
2023-04-02T18:19:10.563Z,79.45
2023-04-02T18:22:22.876Z,78.85
2023-04-02T18:25:14.437Z,79.98
2023-04-02T18:27:47.363Z,80.90
2023-04-02T18:30:36.290Z,82.93
2023-04-02T18:33:27.853Z,83.51
2023-04-02T18:36:21.110Z,85.49
2023-04-02T18:38:54.813Z,86.02
2023-04-02T18:41:45.492Z,85.78
2023-04-02T18:44:41.944Z,86.13
2023-04-02T18:47:14.980Z,86.43
2023-04-02T18:50:03.421Z,85.89
2023-04-02T18:52:30.073Z,86.19
2023-04-02T18:55:04.519Z,85.36
2023-04-02T18:57:35.644Z,84.96
2023-04-02T19:00:24.073Z,85.11
2023-04-02T19:03:11.516Z,86.52
2023-04-02T19:05:45.964Z,86.89
2023-04-02T19:08:32.665Z,88.15
2023-04-02T19:11:04.058Z,88.67
2023-04-02T19:13:30.488Z,88.97
2023-04-02T19:16:33.860Z,90.07
2023-04-02T19:19:00.141Z,90.95
2023-04-02T19:21:41.715Z,91.01
2023-04-02T19:24:18.982Z,91.86
2023-04-02T19:27:14.686Z,92.19
2023-04-02T19:30:21.844Z,92.30
2023-04-02T19:33:14.822Z,93.11
2023-04-02T19:35:55.613Z,93.25
2023-04-02T19:38:42.114Z,94.20
2023-04-02T19:41:27.903Z,94.09
2023-04-02T19:43:55.560Z,94.63
2023-04-02T19:46:23.138Z,94.63
2023-04-02T19:48:59.749Z,93.75
2023-04-02T19:51:26.096Z,91.19
2023-04-02T19:53:52.356Z,88.02
2023-04-02T19:56:18.726Z,86.50
2023-04-02T19:58:44.983Z,86.60
2023-04-02T20:01:11.383Z,85.47
2023-04-02T20:03:37.912Z,86.18
2023-04-02T20:06:04.957Z,87.15
2023-04-02T20:08:31.575Z,86.81
2023-04-02T20:10:58.259Z,86.53
2023-04-02T20:13:24.877Z,86.36
2023-04-02T20:15:51.227Z,86.24
2023-04-02T20:18:17.966Z,87.09
2023-04-02T20:20:48.238Z,87.33
2023-04-02T20:23:15.597Z,86.58
2023-04-02T20:25:45.569Z,86.16
2023-04-02T20:28:11.933Z,85.24
2023-04-02T20:30:38.345Z,84.64
2023-04-02T20:33:05.173Z,84.82
2023-04-02T20:35:31.641Z,85.66
2023-04-02T20:37:58.144Z,84.66
2023-04-02T20:40:24.857Z,84.04
2023-04-02T20:42:53.858Z,84.44
2023-04-02T20:45:20.240Z,83.88
2023-04-02T20:47:46.522Z,85.00
2023-04-02T20:50:12.857Z,85.35
2023-04-02T20:52:39.105Z,85.62
2023-04-02T20:55:06.072Z,85.75
2023-04-02T20:57:32.449Z,85.37
2023-04-02T20:59:58.950Z,85.49
2023-04-02T21:02:25.425Z,86.26
2023-04-02T21:04:51.793Z,85.95
2023-04-02T21:07:18.078Z,85.36
2023-04-02T21:09:44.377Z,86.09
2023-04-02T21:12:10.710Z,86.46
2023-04-02T21:14:36.979Z,87.15
2023-04-02T21:17:03.448Z,86.77
2023-04-02T21:19:29.732Z,86.06
2023-04-02T21:21:56.054Z,86.93
2023-04-02T21:24:22.416Z,86.72
2023-04-02T21:26:48.747Z,87.18
2023-04-02T21:29:15.331Z,87.32
2023-04-02T21:31:42.268Z,86.91
2023-04-02T21:34:12.612Z,86.88
2023-04-02T21:36:44.964Z,87.94
2023-04-02T21:39:12.882Z,87.77
2023-04-02T21:41:42.283Z,88.97
2023-04-02T21:44:13.838Z,88.22
2023-04-02T21:46:41.309Z,88.71
2023-04-02T21:49:09.006Z,87.73
2023-04-02T21:51:37.340Z,88.48
2023-04-02T21:54:04.782Z,89.24
2023-04-02T21:56:34.553Z,88.86
2023-04-02T21:59:01.639Z,88.39
2023-04-02T22:01:30.944Z,90.15
2023-04-02T22:03:59.568Z,89.52
2023-04-02T22:06:28.868Z,89.57
2023-04-02T22:09:05.570Z,90.08
2023-04-02T22:11:55.054Z,90.27
2023-04-02T22:14:21.983Z,90.29
2023-04-02T22:16:48.624Z,90.52
2023-04-02T22:19:16.428Z,89.72
2023-04-02T22:21:42.897Z,90.48
2023-04-02T22:24:13.638Z,90.73
2023-04-02T22:26:40.798Z,90.37
2023-04-02T22:29:07.599Z,90.14
2023-04-02T22:31:34.080Z,90.64
2023-04-02T22:34:01.714Z,90.76
2023-04-02T22:36:28.958Z,90.66
2023-04-02T22:38:56.796Z,91.05
2023-04-02T22:41:26.252Z,91.24
2023-04-02T22:43:53.379Z,90.89
2023-04-02T22:46:20.683Z,92.24
2023-04-02T22:48:48.521Z,90.98
2023-04-02T22:51:16.724Z,91.88
2023-04-02T22:53:43.368Z,91.44
2023-04-02T22:56:12.518Z,91.82
2023-04-02T22:58:39.211Z,92.82
2023-04-02T23:01:36.417Z,92.81
2023-04-02T23:04:02.856Z,93.78
2023-04-02T23:06:29.137Z,92.82
2023-04-02T23:08:55.510Z,93.69
2023-04-02T23:11:27.685Z,93.24
2023-04-02T23:13:55.843Z,92.84
2023-04-02T23:16:22.542Z,92.16
2023-04-02T23:18:49.216Z,92.24
2023-04-02T23:21:17.291Z,92.44
2023-04-02T23:23:44.058Z,92.16
2023-04-02T23:26:13.314Z,92.72
2023-04-02T23:28:39.982Z,93.02
2023-04-02T23:31:08.436Z,92.64
2023-04-02T23:33:35.009Z,92.98
2023-04-02T23:36:23.078Z,92.48
2023-04-02T23:38:52.347Z,92.45
2023-04-02T23:41:18.692Z,92.59
2023-04-02T23:43:45.098Z,93.25
2023-04-02T23:46:11.448Z,92.64
2023-04-02T23:48:37.813Z,92.53
2023-04-02T23:51:04.497Z,91.93
2023-04-02T23:53:30.941Z,92.24
2023-04-02T23:55:57.623Z,92.53
2023-04-02T23:58:23.942Z,92.51
